Time;durP1;ratioP1;P1;durP2;ratioP2;P2;SDS_P1;SDS_P2;PMS_P1;PMS_P2;Temp;Humidity;BMP_temperature;BMP_pressure;BME280_temperature;BME280_humidity;BME280_pressure;Samples;Min_cycle;Max_cycle;Signal;HPM_P1;HPM_P2
2023/01/20 00:00:05;;;;;;;20.25;15.15;;;;;;;;;;6286731;22;20003;-91
2023/01/20 00:02:31;;;;;;;22.55;14.88;;;;;;;;;;6313542;22;20054;-90
2023/01/20 00:04:57;;;;;;;20.45;14.35;;;;;;;;;;6313523;22;19999;-90
2023/01/20 00:07:23;;;;;;;19.17;14.35;;;;;;;;;;6313884;22;20004;-90
2023/01/20 00:09:49;;;;;;;21.58;15.32;;;;;;;;;;6286590;22;20003;-89
2023/01/20 00:12:15;;;;;;;21.63;14.95;;;;;;;;;;6286412;22;20078;-90
2023/01/20 00:14:41;;;;;;;21.30;14.60;;;;;;;;;;6286034;22;19999;-90
2023/01/20 00:17:07;;;;;;;24.85;16.38;;;;;;;;;;6313793;22;20019;-91
2023/01/20 00:19:33;;;;;;;24.13;16.38;;;;;;;;;;6286679;22;20057;-90
2023/01/20 00:21:59;;;;;;;23.02;15.57;;;;;;;;;;6313554;22;20007;-91
2023/01/20 00:24:25;;;;;;;22.02;15.85;;;;;;;;;;6286032;22;20436;-91
2023/01/20 00:33:35;;;;;;;22.00;15.27;;;;;;;;;;6313497;22;19997;-89
2023/01/20 00:36:01;;;;;;;;;;;;;;;;;;6286987;22;20236;-90
2023/01/20 00:38:27;;;;;;;21.42;16.20;;;;;;;;;;6313465;22;19905;-89
2023/01/20 00:47:00;;;;;;;25.27;17.05;;;;;;;;;;6313012;22;20076;-90
2023/01/20 00:49:26;;;;;;;29.80;18.42;;;;;;;;;;6313689;22;20003;-90
2023/01/20 00:51:53;;;;;;;24.83;17.35;;;;;;;;;;6313079;22;20000;-90
2023/01/20 00:54:19;;;;;;;29.00;18.65;;;;;;;;;;6286192;22;20370;-90
2023/01/20 00:56:45;;;;;;;28.70;18.55;;;;;;;;;;6286608;22;20393;-89
2023/01/20 00:59:11;;;;;;;28.58;17.88;;;;;;;;;;6286288;22;20461;-90
2023/01/20 01:01:37;;;;;;;30.13;18.42;;;;;;;;;;6313365;22;20025;-90
2023/01/20 01:04:03;;;;;;;24.88;17.48;;;;;;;;;;6313543;22;20253;-90
2023/01/20 01:06:29;;;;;;;26.05;17.45;;;;;;;;;;6286238;22;20362;-91
2023/01/20 01:08:56;;;;;;;26.85;17.23;;;;;;;;;;6313345;22;19999;-90
2023/01/20 01:14:25;;;;;;;28.25;18.50;;;;;;;;;;6313266;22;20033;-92
2023/01/20 01:16:51;;;;;;;24.90;17.02;;;;;;;;;;6312987;22;20045;-91
2023/01/20 01:19:18;;;;;;;29.88;18.27;;;;;;;;;;6286528;22;20258;-91
2023/01/20 01:21:44;;;;;;;28.58;18.15;;;;;;;;;;6286039;22;20010;-91
2023/01/20 01:24:10;;;;;;;26.30;17.52;;;;;;;;;;6312638;22;20007;-91
2023/01/20 01:29:40;;;;;;;28.38;18.73;;;;;;;;;;6312662;22;20460;-91
2023/01/20 01:32:07;;;;;;;26.77;18.73;;;;;;;;;;6313412;22;20057;-92
2023/01/20 01:34:33;;;;;;;27.60;19.45;;;;;;;;;;6313379;22;19999;-91
2023/01/20 01:36:59;;;;;;;28.52;19.00;;;;;;;;;;6286081;22;20078;-91
2023/01/20 01:39:26;;;;;;;29.08;19.08;;;;;;;;;;6285829;22;20389;-91
2023/01/20 01:41:52;;;;;;;27.25;18.88;;;;;;;;;;6285384;22;20046;-91
2023/01/20 01:44:19;;;;;;;27.83;19.73;;;;;;;;;;6313197;22;20040;-90
2023/01/20 01:46:46;;;;;;;29.23;20.38;;;;;;;;;;6312503;22;20379;-91
2023/01/20 01:49:41;;;;;;;34.20;20.83;;;;;;;;;;6313104;22;20006;-92
2023/01/20 01:52:09;;;;;;;30.88;20.00;;;;;;;;;;6218999;22;20001;-91
2023/01/20 01:54:38;;;;;;;29.83;19.77;;;;;;;;;;6194112;23;20036;-90
2023/01/20 01:57:06;;;;;;;29.65;19.55;;;;;;;;;;6218955;23;20016;-91
2023/01/20 01:59:33;;;;;;;29.67;20.20;;;;;;;;;;6219019;23;20013;-91
2023/01/20 02:01:59;;;;;;;28.02;20.10;;;;;;;;;;6218764;23;20005;-90
2023/01/20 02:04:26;;;;;;;30.50;20.25;;;;;;;;;;6193904;23;20040;-91
2023/01/20 02:07:00;;;;;;;32.25;20.75;;;;;;;;;;6193861;23;20067;-90
2023/01/20 02:09:27;;;;;;;29.58;20.55;;;;;;;;;;6219032;23;20005;-90
2023/01/20 02:11:55;;;;;;;29.13;19.85;;;;;;;;;;6219200;23;20008;-91
2023/01/20 02:14:23;;;;;;;32.05;21.13;;;;;;;;;;6193835;23;20004;-91
2023/01/20 02:17:00;;;;;;;30.67;21.27;;;;;;;;;;6218865;23;20442;-90
2023/01/20 02:19:44;;;;;;;29.23;18.63;;;;;;;;;;6219033;23;20039;-90
2023/01/20 02:22:11;;;;;;;29.17;19.33;;;;;;;;;;6218768;23;20075;-91
2023/01/20 02:24:43;;;;;;;33.45;22.15;;;;;;;;;;6193814;23;20004;-91
2023/01/20 02:30:12;;;;;;;32.58;20.65;;;;;;;;;;6312701;22;20013;-91
2023/01/20 02:32:38;;;;;;;28.55;21.08;;;;;;;;;;6313218;22;19996;-91
2023/01/20 02:35:20;;;;;;;28.92;19.65;;;;;;;;;;6313071;22;20006;-91
2023/01/20 02:37:47;;;;;;;30.10;20.65;;;;;;;;;;6314865;22;20045;-91
2023/01/20 02:40:13;;;;;;;29.30;20.00;;;;;;;;;;6286567;22;20391;-90
2023/01/20 02:45:55;;;;;;;27.13;19.10;;;;;;;;;;6314270;22;20049;-91
2023/01/20 02:48:27;;;;;;;29.88;21.02;;;;;;;;;;6287504;22;20014;-92
2023/01/20 02:51:01;;;;;;;29.27;19.50;;;;;;;;;;6315086;22;20003;-90
2023/01/20 02:53:31;;;;;;;32.28;21.63;;;;;;;;;;6314865;22;20004;-90
2023/01/20 02:59:30;;;;;;;39.95;26.25;;;;;;;;;;6314352;22;20058;-91
2023/01/20 03:02:01;;;;;;;37.15;24.75;;;;;;;;;;6287107;22;20056;-90
2023/01/20 03:04:29;;;;;;;32.67;22.10;;;;;;;;;;6315060;22;20003;-91
2023/01/20 03:06:58;;;;;;;31.17;21.33;;;;;;;;;;6314487;22;20067;-89
2023/01/20 03:09:32;;;;;;;33.15;22.55;;;;;;;;;;6287422;22;20007;-91
2023/01/20 03:12:04;;;;;;;33.67;22.75;;;;;;;;;;6314331;22;19999;-90
2023/01/20 03:14:30;;;;;;;32.05;21.65;;;;;;;;;;6314430;22;20004;-89
2023/01/20 03:16:56;;;;;;;34.53;23.20;;;;;;;;;;6287305;22;20003;-90
2023/01/20 03:19:22;;;;;;;33.33;21.85;;;;;;;;;;6287486;22;20054;-90
2023/01/20 03:21:48;;;;;;;35.33;23.10;;;;;;;;;;6286758;22;20370;-90
2023/01/20 03:24:14;;;;;;;32.92;23.35;;;;;;;;;;6313999;22;20003;-92
2023/01/20 03:26:40;;;;;;;36.50;23.10;;;;;;;;;;6286555;22;20007;-92
2023/01/20 03:29:08;;;;;;;34.17;22.63;;;;;;;;;;6314484;22;20003;-91
2023/01/20 03:31:37;;;;;;;32.47;22.27;;;;;;;;;;6314283;22;20415;-91
2023/01/20 03:34:09;;;;;;;37.30;22.50;;;;;;;;;;6313949;22;20078;-91
2023/01/20 03:36:36;;;;;;;32.95;22.50;;;;;;;;;;6314426;22;19999;-90
2023/01/20 03:39:02;;;;;;;38.58;23.67;;;;;;;;;;6287133;22;20301;-91
2023/01/20 03:44:38;;;;;;;33.05;20.83;;;;;;;;;;6313812;22;20065;-90
2023/01/20 03:47:04;;;;;;;33.55;22.35;;;;;;;;;;6313321;22;20049;-89
2023/01/20 03:49:39;;;;;;;35.55;23.23;;;;;;;;;;6314074;22;20000;-90
2023/01/20 03:52:11;;;;;;;35.60;22.30;;;;;;;;;;6313770;22;19996;-89
2023/01/20 03:54:43;;;;;;;35.55;22.85;;;;;;;;;;6313702;22;19999;-90
2023/01/20 04:00:14;;;;;;;42.60;25.70;;;;;;;;;;6313623;22;20316;-91
2023/01/20 04:02:40;;;;;;;42.03;25.58;;;;;;;;;;6286360;22;20005;-91
2023/01/20 04:05:07;;;;;;;38.88;23.63;;;;;;;;;;6313693;22;20018;-90
2023/01/20 04:07:33;;;;;;;38.72;22.70;;;;;;;;;;6286123;22;20003;-90
2023/01/20 04:10:05;;;;;;;35.17;22.80;;;;;;;;;;6286634;22;20000;-90
2023/01/20 04:18:42;;;;;;;42.55;24.95;;;;;;;;;;6313511;22;20389;-91
2023/01/20 04:21:13;;;;;;;33.67;21.27;;;;;;;;;;6313497;22;20003;-90
2023/01/20 04:23:42;;;;;;;31.15;21.27;;;;;;;;;;6313788;22;20377;-91
2023/01/20 04:26:08;;;;;;;30.33;20.08;;;;;;;;;;6286841;22;20030;-91
2023/01/20 04:28:34;;;;;;;32.28;21.52;;;;;;;;;;6313719;22;20009;-91
2023/01/20 04:31:00;;;;;;;31.50;20.20;;;;;;;;;;6286490;22;19995;-90
2023/01/20 04:33:26;;;;;;;28.83;19.92;;;;;;;;;;6286180;22;19999;-90
2023/01/20 04:35:52;;;;;;;32.17;21.10;;;;;;;;;;6286044;22;20007;-90
2023/01/20 04:38:18;;;;;;;30.38;20.80;;;;;;;;;;6286109;22;20102;-91
2023/01/20 04:40:44;;;;;;;29.30;20.15;;;;;;;;;;6313318;22;20000;-91
2023/01/20 04:43:47;;;;;;;30.88;20.00;;;;;;;;;;6313209;22;20430;-91
2023/01/20 04:46:14;;;;;;;32.20;21.35;;;;;;;;;;6313017;22;20015;-90
2023/01/20 04:48:40;;;;;;;32.40;21.63;;;;;;;;;;6286365;22;20081;-91
2023/01/20 04:51:07;;;;;;;31.10;21.33;;;;;;;;;;6286364;22;20082;-90
2023/01/20 04:53:33;;;;;;;35.30;21.77;;;;;;;;;;6286067;22;20090;-90
2023/01/20 04:55:59;;;;;;;33.20;21.45;;;;;;;;;;6313285;22;20076;-90
2023/01/20 04:58:26;;;;;;;33.55;21.73;;;;;;;;;;6313054;22;20437;-90
2023/01/20 05:00:52;;;;;;;36.80;22.17;;;;;;;;;;6313479;22;19999;-90
2023/01/20 05:03:18;;;;;;;35.72;22.42;;;;;;;;;;6313289;22;20378;-90
2023/01/20 05:05:44;;;;;;;38.00;22.80;;;;;;;;;;6313317;22;20029;-90
2023/01/20 05:08:10;;;;;;;36.28;23.83;;;;;;;;;;6313359;22;20019;-91
2023/01/20 05:10:36;;;;;;;36.90;23.20;;;;;;;;;;6313094;22;20002;-90
2023/01/20 05:16:06;;;;;;;34.70;22.48;;;;;;;;;;6312852;22;20081;-92
2023/01/20 05:18:33;;;;;;;35.42;23.60;;;;;;;;;;6286064;22;20019;-92
2023/01/20 05:20:59;;;;;;;36.40;23.23;;;;;;;;;;6313320;22;20011;-90
2023/01/20 05:23:25;;;;;;;35.58;22.88;;;;;;;;;;6313063;22;20007;-90
2023/01/20 05:25:51;;;;;;;36.83;24.55;;;;;;;;;;6313265;22;20007;-89
2023/01/20 05:34:25;;;;;;;36.97;22.95;;;;;;;;;;6312867;22;20003;-90
2023/01/20 05:36:52;;;;;;;36.60;24.10;;;;;;;;;;6313346;22;20074;-90
2023/01/20 05:39:18;;;;;;;33.63;22.15;;;;;;;;;;6312914;22;20082;-89
2023/01/20 05:44:48;;;;;;;34.28;21.00;;;;;;;;;;6312764;22;20052;-90
2023/01/20 05:47:14;;;;;;;34.42;21.88;;;;;;;;;;6312737;22;20296;-91
2023/01/20 05:49:40;;;;;;;34.83;21.73;;;;;;;;;;6313142;22;20023;-91
2023/01/20 05:52:06;;;;;;;31.05;20.95;;;;;;;;;;6313382;22;20255;-90
2023/01/20 05:54:32;;;;;;;31.70;20.83;;;;;;;;;;6312781;22;20380;-90
2023/01/20 05:56:58;;;;;;;32.63;20.88;;;;;;;;;;6285808;22;20365;-89
2023/01/20 05:59:24;;;;;;;33.35;21.42;;;;;;;;;;6312621;22;20007;-90
2023/01/20 06:01:50;;;;;;;29.75;19.38;;;;;;;;;;6286100;22;20007;-90
2023/01/20 06:28:12;;;;;;;36.63;22.77;;;;;;;;;;6283978;22;19909;-91
2023/01/20 06:30:41;;;;;;;31.83;21.25;;;;;;;;;;6284207;22;20028;-92
2023/01/20 07:18:04;;;;;;;39.28;24.92;;;;;;;;;;6283803;22;20053;-94
2023/01/20 07:20:30;;;;;;;40.03;25.17;;;;;;;;;;6283560;22;20074;-93
2023/01/20 07:22:59;;;;;;;42.83;26.70;;;;;;;;;;6285048;22;19999;-96
2023/01/20 07:25:25;;;;;;;45.08;28.00;;;;;;;;;;6314280;22;20010;-95
2023/01/20 07:27:52;;;;;;;41.58;26.02;;;;;;;;;;6313964;22;20240;-95
2023/01/20 07:30:18;;;;;;;36.67;24.67;;;;;;;;;;6314293;22;20068;-95
2023/01/20 07:32:44;;;;;;;39.10;24.23;;;;;;;;;;6286949;22;20003;-95
2023/01/20 07:35:10;;;;;;;40.35;23.35;;;;;;;;;;6314373;22;20037;-95
2023/01/20 07:37:36;;;;;;;36.47;23.23;;;;;;;;;;6287013;22;20023;-95
2023/01/20 07:40:02;;;;;;;41.88;26.40;;;;;;;;;;6286869;22;20300;-95
2023/01/20 07:42:28;;;;;;;44.08;28.45;;;;;;;;;;6314297;22;20289;-94
2023/01/20 07:44:54;;;;;;;40.83;25.60;;;;;;;;;;6286772;22;20094;-95
2023/01/20 07:47:22;;;;;;;40.72;25.02;;;;;;;;;;6314251;22;20000;-95
2023/01/20 07:49:48;;;;;;;39.40;25.70;;;;;;;;;;6286886;22;20010;-95
2023/01/20 07:52:14;;;;;;;34.45;23.15;;;;;;;;;;6287020;22;19999;-96
2023/01/20 07:54:40;;;;;;;36.90;24.15;;;;;;;;;;6286893;22;20003;-94
2023/01/20 07:57:07;;;;;;;41.30;25.75;;;;;;;;;;6286937;22;20894;-95
2023/01/20 08:31:54;;;;;;;37.00;23.77;;;;;;;;;;6281055;22;20028;-94
2023/01/20 08:48:20;;;;;;;57.70;32.50;;;;;;;;;;6280622;22;20260;-94
2023/01/20 08:50:46;;;;;;;79.63;42.70;;;;;;;;;;6282866;22;20000;-96
2023/01/20 08:56:02;;;;;;;95.55;51.80;;;;;;;;;;6280995;22;20022;-94
2023/01/20 08:58:31;;;;;;;71.60;40.92;;;;;;;;;;6255523;22;20090;-94
2023/01/20 09:00:57;;;;;;;68.00;40.60;;;;;;;;;;6255880;22;20000;-95
2023/01/20 10:07:41;;;;;;;48.70;28.00;;;;;;;;;;6282964;22;20016;-95
2023/01/20 10:22:15;;;;;;;61.65;33.15;;;;;;;;;;6281658;22;20255;-93
2023/01/20 10:24:46;;;;;;;56.97;31.00;;;;;;;;;;6307064;22;20048;-93
2023/01/20 10:27:12;;;;;;;52.13;29.17;;;;;;;;;;6315450;22;19996;-94
2023/01/20 10:29:43;;;;;;;43.97;26.30;;;;;;;;;;6314948;22;20000;-95
2023/01/20 10:32:23;;;;;;;47.65;28.17;;;;;;;;;;6314525;22;20000;-94
2023/01/20 10:34:50;;;;;;;47.78;29.45;;;;;;;;;;6314502;22;20010;-94
2023/01/20 10:37:16;;;;;;;53.53;29.92;;;;;;;;;;6287700;22;20003;-93
2023/01/20 10:39:45;;;;;;;53.97;30.40;;;;;;;;;;6287975;22;20003;-94
2023/01/20 10:42:13;;;;;;;54.70;32.45;;;;;;;;;;6287999;22;20358;-94
2023/01/20 10:44:39;;;;;;;47.47;29.48;;;;;;;;;;6314399;22;19999;-94
2023/01/20 10:56:33;;;;;;;44.17;26.27;;;;;;;;;;6314278;22;20057;-94
2023/01/20 10:59:02;;;;;;;44.90;27.23;;;;;;;;;;6314423;22;20066;-94
2023/01/20 11:01:28;;;;;;;43.42;27.20;;;;;;;;;;6287446;22;20244;-94
2023/01/20 11:03:54;;;;;;;48.83;28.35;;;;;;;;;;6287302;22;20074;-95
2023/01/20 11:06:22;;;;;;;42.95;26.55;;;;;;;;;;6314646;22;19991;-93
2023/01/20 11:08:48;;;;;;;51.97;30.50;;;;;;;;;;6314470;22;20003;-93
2023/01/20 11:11:18;;;;;;;46.65;26.50;;;;;;;;;;6314188;22;20351;-93
2023/01/20 11:13:45;;;;;;;48.53;28.13;;;;;;;;;;6314652;22;20285;-93
2023/01/20 11:19:15;;;;;;;61.40;33.90;;;;;;;;;;6319507;22;20018;-95
2023/01/20 11:21:41;;;;;;;45.55;27.55;;;;;;;;;;6313991;22;20278;-94
2023/01/20 11:27:45;;;;;;;40.97;25.52;;;;;;;;;;6314215;22;20046;-94
2023/01/20 11:30:42;;;;;;;47.20;28.92;;;;;;;;;;6313968;22;20044;-95
2023/01/20 11:33:28;;;;;;;46.47;27.88;;;;;;;;;;6135512;23;20254;-95
2023/01/20 11:38:57;;;;;;;41.72;27.52;;;;;;;;;;6161044;23;20011;-89
2023/01/20 11:41:28;;;;;;;46.95;28.88;;;;;;;;;;6135576;23;20005;-93
2023/01/20 11:43:55;;;;;;;46.10;30.25;;;;;;;;;;6160169;23;20028;-93
2023/01/20 11:46:21;;;;;;;44.30;28.20;;;;;;;;;;6160301;23;20338;-94
2023/01/20 11:48:48;;;;;;;36.90;23.48;;;;;;;;;;6135356;23;20010;-93
2023/01/20 12:09:30;;;;;;;47.50;29.77;;;;;;;;;;6283181;22;20081;-93
2023/01/20 12:11:58;;;;;;;45.22;26.90;;;;;;;;;;6256533;22;20008;-91
2023/01/20 12:14:29;;;;;;;42.45;26.38;;;;;;;;;;6256221;22;20004;-90
2023/01/20 12:16:55;;;;;;;41.38;25.15;;;;;;;;;;6283016;22;20269;-92
2023/01/20 12:19:26;;;;;;;40.28;25.02;;;;;;;;;;6256144;22;20014;-92
2023/01/20 12:21:52;;;;;;;40.38;25.98;;;;;;;;;;6255740;22;20008;-92
2023/01/20 12:25:06;;;;;;;42.40;25.90;;;;;;;;;;6274186;22;20007;-91
2023/01/20 12:57:04;;;;;;;46.72;27.52;;;;;;;;;;6281252;22;20034;-86
2023/01/20 13:02:36;;;;;;;38.35;25.08;;;;;;;;;;6282429;22;20014;-87
2023/01/20 13:08:10;;;;;;;33.30;21.70;;;;;;;;;;6282422;22;20045;-86
2023/01/20 13:25:40;;;;;;;50.80;30.58;;;;;;;;;;6280166;22;20098;-85
2023/01/20 13:28:14;;;;;;;47.53;28.52;;;;;;;;;;6281852;22;20400;-87
2023/01/20 13:30:49;;;;;;;41.25;24.25;;;;;;;;;;6281855;22;20040;-87
2023/01/20 13:36:20;;;;;;;34.60;21.63;;;;;;;;;;6282480;22;20073;-87
2023/01/20 13:38:48;;;;;;;34.63;23.38;;;;;;;;;;6282363;22;20010;-87
2023/01/20 13:41:34;;;;;;;38.83;23.80;;;;;;;;;;6282236;22;20002;-88
2023/01/20 13:44:02;;;;;;;34.10;20.88;;;;;;;;;;6281717;22;20026;-87
2023/01/20 14:01:31;;;;;;;34.03;20.45;;;;;;;;;;6282275;22;20282;-88
2023/01/20 18:05:34;;;;;;;33.75;22.05;;;;;;;;;;6282499;22;20022;-94
2023/01/20 18:19:12;;;;;;;38.72;24.02;;;;;;;;;;6300249;22;20026;-93
2023/01/20 18:21:40;;;;;;;40.70;24.05;;;;;;;;;;6345424;22;20013;-93
2023/01/20 18:24:09;;;;;;;33.72;22.35;;;;;;;;;;6360989;22;20082;-94
2023/01/20 18:26:36;;;;;;;33.60;21.80;;;;;;;;;;6377045;22;20002;-93
2023/01/20 18:29:09;;;;;;;36.22;22.42;;;;;;;;;;6376814;22;20001;-94
2023/01/20 18:31:35;;;;;;;31.98;20.75;;;;;;;;;;6377309;22;20013;-91
2023/01/20 18:34:03;;;;;;;32.65;21.27;;;;;;;;;;6376696;22;20004;-92
2023/01/20 18:36:33;;;;;;;33.15;22.38;;;;;;;;;;6349263;22;20001;-92
2023/01/20 18:39:01;;;;;;;33.13;20.58;;;;;;;;;;6349368;22;20303;-93
2023/01/20 18:41:28;;;;;;;36.55;23.60;;;;;;;;;;6349307;22;20006;-92
2023/01/20 18:47:23;;;;;;;37.67;23.20;;;;;;;;;;6377502;22;20055;-91
2023/01/20 18:49:49;;;;;;;41.47;24.35;;;;;;;;;;6377553;22;20006;-92
2023/01/20 18:52:17;;;;;;;37.60;22.90;;;;;;;;;;6377051;22;20230;-92
2023/01/20 18:54:43;;;;;;;40.35;24.00;;;;;;;;;;6376438;22;19998;-92
2023/01/20 18:57:10;;;;;;;46.08;27.80;;;;;;;;;;6349461;22;20021;-91
2023/01/20 22:00:21;;;;;;;57.15;29.45;;;;;;;;;;6314478;22;20041;-95
2023/01/20 22:02:47;;;;;;;50.80;27.98;;;;;;;;;;6313168;22;20011;-94
2023/01/20 22:05:14;;;;;;;53.10;28.48;;;;;;;;;;6285848;22;20007;-95
2023/01/20 22:07:40;;;;;;;41.70;27.08;;;;;;;;;;6313181;22;20003;-94
2023/01/20 22:10:06;;;;;;;50.05;29.00;;;;;;;;;;6313239;22;20266;-95
2023/01/20 22:12:34;;;;;;;49.13;28.88;;;;;;;;;;6313209;22;19995;-95
2023/01/20 22:21:21;;;;;;;54.42;29.48;;;;;;;;;;6313191;22;20278;-95
2023/01/20 22:23:47;;;;;;;54.58;31.15;;;;;;;;;;6312734;22;20432;-96
2023/01/20 22:26:14;;;;;;;54.42;30.23;;;;;;;;;;6312594;22;20078;-95
2023/01/20 22:28:40;;;;;;;53.70;29.17;;;;;;;;;;6285108;22;20429;-94
2023/01/20 22:34:24;;;;;;;50.53;28.40;;;;;;;;;;6313023;22;20042;-95
2023/01/20 22:36:50;;;;;;;54.30;29.98;;;;;;;;;;6312844;22;20011;-95
2023/01/20 22:39:16;;;;;;;55.08;30.35;;;;;;;;;;6313185;22;20003;-95
2023/01/20 22:41:42;;;;;;;76.32;36.00;;;;;;;;;;6312678;22;20006;-96
2023/01/20 22:44:08;;;;;;;58.33;32.30;;;;;;;;;;6312767;22;20090;-96
2023/01/20 22:49:38;;;;;;;46.15;27.92;;;;;;;;;;6313031;22;20094;-95
2023/01/20 22:52:04;;;;;;;47.90;29.92;;;;;;;;;;6286293;22;19995;-95
2023/01/20 22:54:30;;;;;;;46.90;28.73;;;;;;;;;;6286847;22;20007;-95
2023/01/20 22:56:56;;;;;;;43.83;27.35;;;;;;;;;;6287065;22;20015;-95
2023/01/20 22:59:23;;;;;;;46.08;29.23;;;;;;;;;;6314702;22;20003;-96
2023/01/20 23:02:26;;;;;;;50.47;29.63;;;;;;;;;;6314832;22;19999;-95
2023/01/20 23:04:52;;;;;;;85.63;44.40;;;;;;;;;;6315005;22;20366;-94
2023/01/20 23:07:18;;;;;;;66.38;35.97;;;;;;;;;;6314540;22;20007;-94
2023/01/20 23:09:47;;;;;;;71.20;36.35;;;;;;;;;;6315311;22;20003;-95
2023/01/20 23:12:13;;;;;;;76.10;36.05;;;;;;;;;;6315789;22;20239;-96
2023/01/20 23:15:13;;;;;;;133.18;44.20;;;;;;;;;;6316310;22;20008;-96
2023/01/20 23:17:33;;;;;;;142.80;51.63;;;;;;;;;;6313411;22;20010;-95
2023/01/20 23:19:59;;;;;;;120.60;48.55;;;;;;;;;;6290010;22;20033;-96
2023/01/20 23:22:25;;;;;;;91.90;39.40;;;;;;;;;;6287594;22;20078;-95
2023/01/20 23:24:51;;;;;;;63.67;32.13;;;;;;;;;;6287132;22;20058;-95
2023/01/20 23:27:17;;;;;;;71.43;34.53;;;;;;;;;;6314567;22;20049;-95
2023/01/20 23:29:44;;;;;;;76.72;35.17;;;;;;;;;;6315400;22;20003;-95
2023/01/20 23:35:14;;;;;;;46.47;27.00;;;;;;;;;;6317694;22;20033;-96
2023/01/20 23:37:40;;;;;;;64.53;32.25;;;;;;;;;;6314266;22;20007;-96
2023/01/20 23:40:06;;;;;;;81.82;38.15;;;;;;;;;;6287019;22;20015;-96
2023/01/20 23:42:32;;;;;;;69.72;34.65;;;;;;;;;;6287031;22;20004;-96
2023/01/20 23:44:58;;;;;;;77.47;37.38;;;;;;;;;;6314039;22;20007;-95
2023/01/20 23:47:24;;;;;;;66.75;31.65;;;;;;;;;;6314172;22;19999;-96
2023/01/20 23:49:50;;;;;;;55.88;30.42;;;;;;;;;;6313784;22;20027;-95
2023/01/20 23:52:16;;;;;;;55.55;30.67;;;;;;;;;;6314188;22;20078;-96
2023/01/20 23:54:42;;;;;;;46.33;27.77;;;;;;;;;;6286635;22;21138;-95
2023/01/20 23:57:08;;;;;;;48.28;28.48;;;;;;;;;;6313522;22;20015;-95
2023/01/20 23:59:36;;;;;;;42.78;27.40;;;;;;;;;;6314984;22;20003;-95
